Time;durP1;ratioP1;P1;durP2;ratioP2;P2;SDS_P1;SDS_P2;PMS_P1;PMS_P2;Temp;Humidity;BMP_temperature;BMP_pressure;BME280_temperature;BME280_humidity;BME280_pressure;Samples;Min_cycle;Max_cycle;Signal;HPM_P1;HPM_P2
2022/03/15 00:00:34;;;;;;;1.25;1.15;;;8.80;99.90;;;;;;5033701;28;20200;-66
2022/03/15 00:03:01;;;;;;;1.20;1.20;;;8.80;99.90;;;;;;5033171;28;20628;-62
2022/03/15 00:05:28;;;;;;;0.95;0.95;;;8.70;99.90;;;;;;5033883;28;20308;-66
2022/03/15 00:07:55;;;;;;;1.00;1.00;;;8.90;99.90;;;;;;5034566;28;20335;-65
2022/03/15 00:10:23;;;;;;;1.35;1.00;;;8.70;99.90;;;;;;5034582;28;20216;-66
2022/03/15 00:12:51;;;;;;;0.97;0.97;;;8.70;99.90;;;;;;5033088;28;20211;-64
2022/03/15 00:15:20;;;;;;;0.90;0.90;;;8.60;99.90;;;;;;5033592;28;20240;-67
2022/03/15 00:17:47;;;;;;;1.00;1.00;;;8.60;99.90;;;;;;5033117;28;20855;-67
2022/03/15 00:20:18;;;;;;;0.90;0.90;;;8.50;99.90;;;;;;5033232;28;20220;-64
2022/03/15 00:22:46;;;;;;;0.70;0.70;;;8.50;99.90;;;;;;5032867;28;20200;-65
2022/03/15 00:25:16;;;;;;;1.10;1.10;;;8.50;99.90;;;;;;5033153;28;20200;-66
2022/03/15 00:27:44;;;;;;;0.70;0.70;;;8.40;99.90;;;;;;5030363;28;20739;-65
2022/03/15 00:30:13;;;;;;;0.80;0.80;;;8.40;99.90;;;;;;5016659;28;20209;-66
2022/03/15 00:32:48;;;;;;;1.20;1.10;;;8.40;99.90;;;;;;5023237;28;20225;-65
2022/03/15 00:35:18;;;;;;;0.93;0.93;;;8.50;99.90;;;;;;5039160;28;20212;-65
2022/03/15 00:37:46;;;;;;;1.10;1.10;;;8.50;99.90;;;;;;5014244;28;20308;-65
2022/03/15 00:40:14;;;;;;;0.90;0.90;;;8.50;99.90;;;;;;5019019;28;20842;-65
2022/03/15 00:42:43;;;;;;;0.77;0.77;;;8.50;99.90;;;;;;5017352;28;20303;-66
2022/03/15 00:45:11;;;;;;;0.80;0.80;;;8.50;99.90;;;;;;5033368;28;20211;-63
2022/03/15 00:47:38;;;;;;;0.93;0.93;;;8.60;99.90;;;;;;5032668;28;20663;-64
2022/03/15 00:50:07;;;;;;;0.82;0.82;;;8.60;99.90;;;;;;5036834;28;20319;-65
2022/03/15 00:52:34;;;;;;;0.80;0.80;;;8.70;99.90;;;;;;5038991;28;20204;-64
2022/03/15 00:55:01;;;;;;;0.90;0.90;;;8.70;99.90;;;;;;5032620;28;20754;-67
2022/03/15 00:57:28;;;;;;;1.20;1.20;;;8.70;99.90;;;;;;5033113;28;20554;-65
2022/03/15 00:59:56;;;;;;;1.67;1.57;;;8.70;99.90;;;;;;5048975;28;20196;-66
2022/03/15 01:02:22;;;;;;;1.10;1.10;;;8.70;99.90;;;;;;5032146;28;20231;-65
2022/03/15 01:04:49;;;;;;;1.10;1.10;;;8.70;99.90;;;;;;5033362;28;20263;-65
2022/03/15 01:07:18;;;;;;;1.10;1.00;;;8.60;99.90;;;;;;5032849;28;20276;-64
2022/03/15 01:09:45;;;;;;;0.90;0.90;;;8.70;99.90;;;;;;5033415;28;20203;-65
2022/03/15 01:12:12;;;;;;;1.10;1.00;;;8.70;99.90;;;;;;5032031;28;20295;-67
2022/03/15 01:14:39;;;;;;;1.00;1.00;;;8.70;99.90;;;;;;5032389;28;20256;-66
2022/03/15 01:17:06;;;;;;;1.13;1.10;;;8.80;99.90;;;;;;5043719;28;20658;-64
2022/03/15 01:19:33;;;;;;;1.10;1.00;;;8.60;99.90;;;;;;5052834;28;20679;-65
2022/03/15 01:22:00;;;;;;;1.00;1.00;;;8.50;99.90;;;;;;5053731;28;20299;-67
2022/03/15 01:24:29;;;;;;;0.90;0.90;;;8.50;99.90;;;;;;5053277;28;20263;-64
2022/03/15 01:26:56;;;;;;;1.40;1.30;;;8.50;99.90;;;;;;5032626;28;20315;-67
2022/03/15 01:29:26;;;;;;;1.00;1.00;;;8.50;99.90;;;;;;5032970;28;20204;-63
2022/03/15 01:31:53;;;;;;;1.25;1.17;;;8.50;99.90;;;;;;5047438;28;20204;-65
2022/03/15 01:34:20;;;;;;;1.17;1.10;;;8.50;99.90;;;;;;5050289;28;20224;-65
2022/03/15 01:36:47;;;;;;;0.83;0.83;;;8.60;99.90;;;;;;5042265;28;20992;-67
2022/03/15 01:39:13;;;;;;;0.80;0.80;;;8.70;99.90;;;;;;5029726;28;20286;-66
2022/03/15 01:41:44;;;;;;;1.05;1.05;;;8.70;99.90;;;;;;5032039;28;20283;-66
2022/03/15 01:44:15;;;;;;;0.95;0.95;;;8.80;99.90;;;;;;5031686;28;20232;-66
2022/03/15 01:46:42;;;;;;;0.82;0.82;;;8.80;99.90;;;;;;5029503;28;20299;-65
2022/03/15 01:49:10;;;;;;;0.95;0.95;;;8.80;99.90;;;;;;5029076;28;20208;-64
2022/03/15 01:51:40;;;;;;;1.00;1.00;;;8.80;99.90;;;;;;5030800;28;20266;-66
2022/03/15 01:54:09;;;;;;;1.08;0.90;;;8.80;99.90;;;;;;5030860;28;20279;-66
2022/03/15 01:56:41;;;;;;;0.90;0.90;;;8.70;99.90;;;;;;5031651;28;20201;-65
2022/03/15 01:59:10;;;;;;;1.08;0.80;;;8.70;99.90;;;;;;5031891;28;20651;-65
2022/03/15 02:01:38;;;;;;;0.70;0.70;;;8.70;99.90;;;;;;5031234;28;20812;-65
2022/03/15 02:04:05;;;;;;;0.90;0.90;;;8.70;99.90;;;;;;5030723;28;20220;-66
2022/03/15 02:06:32;;;;;;;0.80;0.80;;;8.80;99.90;;;;;;5031761;28;20221;-64
2022/03/15 02:08:59;;;;;;;0.90;0.90;;;8.80;99.90;;;;;;5031335;28;20201;-66
2022/03/15 02:11:27;;;;;;;0.63;0.63;;;8.80;99.90;;;;;;5043769;28;20299;-64
2022/03/15 02:13:54;;;;;;;0.77;0.75;;;8.90;99.90;;;;;;5049127;28;20224;-63
2022/03/15 02:16:22;;;;;;;0.73;0.73;;;9.00;99.90;;;;;;5049773;28;20287;-65
2022/03/15 02:18:49;;;;;;;0.95;0.95;;;9.10;99.90;;;;;;5049901;28;20208;-66
2022/03/15 02:21:18;;;;;;;0.85;0.85;;;9.10;99.90;;;;;;5044308;28;20232;-64
2022/03/15 02:23:45;;;;;;;0.97;0.97;;;9.10;99.90;;;;;;5031225;28;20296;-64
2022/03/15 02:26:13;;;;;;;1.10;1.00;;;9.10;99.90;;;;;;5038923;28;20235;-65
2022/03/15 02:28:40;;;;;;;0.75;0.75;;;9.10;99.90;;;;;;5040298;28;20208;-64
2022/03/15 02:31:07;;;;;;;0.85;0.85;;;9.20;99.90;;;;;;5031683;28;20634;-65
2022/03/15 02:33:34;;;;;;;0.90;0.90;;;9.20;99.90;;;;;;5031293;28;20232;-67
2022/03/15 02:36:01;;;;;;;0.75;0.75;;;9.20;99.90;;;;;;5032310;28;20254;-65
2022/03/15 02:38:29;;;;;;;0.85;0.85;;;9.20;99.90;;;;;;5026932;28;20679;-65
2022/03/15 02:40:56;;;;;;;0.70;0.70;;;9.30;99.90;;;;;;5030629;28;20209;-66
2022/03/15 02:43:23;;;;;;;0.73;0.73;;;9.20;99.90;;;;;;5030978;28;20234;-66
2022/03/15 02:45:50;;;;;;;0.85;0.85;;;9.20;99.90;;;;;;5032300;28;20291;-66
2022/03/15 02:48:17;;;;;;;0.93;0.93;;;9.10;99.90;;;;;;5034502;28;20779;-66
2022/03/15 02:50:44;;;;;;;0.90;0.90;;;9.10;99.90;;;;;;5034955;28;20231;-65
2022/03/15 02:53:11;;;;;;;0.90;0.90;;;9.10;99.90;;;;;;5034783;28;20260;-65
2022/03/15 02:55:39;;;;;;;0.80;0.80;;;9.10;99.90;;;;;;5036791;28;20214;-66
2022/03/15 02:58:06;;;;;;;0.90;0.90;;;9.10;99.90;;;;;;5045354;28;20447;-65
2022/03/15 03:00:34;;;;;;;0.80;0.80;;;9.10;99.90;;;;;;5037805;28;20220;-66
2022/03/15 03:03:02;;;;;;;0.77;0.77;;;9.10;99.90;;;;;;5052754;28;20224;-63
2022/03/15 03:05:29;;;;;;;0.70;0.70;;;9.00;99.90;;;;;;5052624;28;20233;-66
2022/03/15 03:07:55;;;;;;;0.85;0.85;;;8.90;99.90;;;;;;5036163;28;20225;-64
2022/03/15 03:10:22;;;;;;;0.73;0.73;;;8.90;99.90;;;;;;5040654;28;20266;-64
2022/03/15 03:12:51;;;;;;;0.90;0.88;;;8.90;99.90;;;;;;5045490;28;20205;-67
2022/03/15 03:15:19;;;;;;;1.08;1.08;;;8.80;99.90;;;;;;5046579;28;20320;-65
2022/03/15 03:17:46;;;;;;;0.90;0.90;;;8.80;99.90;;;;;;5044324;28;20204;-65
2022/03/15 03:20:17;;;;;;;0.70;0.70;;;8.70;99.90;;;;;;5034722;28;20240;-66
2022/03/15 03:22:44;;;;;;;0.80;0.80;;;8.70;99.90;;;;;;5045163;28;20195;-66
2022/03/15 03:25:11;;;;;;;0.90;0.90;;;8.50;99.90;;;;;;5056747;28;20208;-65
2022/03/15 03:27:38;;;;;;;0.88;0.88;;;8.50;99.90;;;;;;5057115;28;20223;-66
2022/03/15 03:30:08;;;;;;;0.93;0.90;;;8.40;99.90;;;;;;5056033;28;20311;-65
2022/03/15 03:32:34;;;;;;;1.00;0.95;;;8.30;99.90;;;;;;5041029;28;20243;-65
2022/03/15 03:35:04;;;;;;;1.00;1.00;;;8.20;99.90;;;;;;5035092;28;20703;-64
2022/03/15 03:37:32;;;;;;;1.10;1.00;;;8.20;99.90;;;;;;5035566;28;20205;-65
2022/03/15 03:39:59;;;;;;;0.90;0.90;;;8.10;99.90;;;;;;5034089;28;20218;-65
2022/03/15 03:42:27;;;;;;;0.93;0.93;;;8.20;99.90;;;;;;5025804;28;20651;-65
2022/03/15 03:44:54;;;;;;;0.90;0.90;;;8.20;99.90;;;;;;5033959;28;20300;-66
2022/03/15 03:47:22;;;;;;;0.80;0.80;;;8.20;99.90;;;;;;5034063;28;20316;-66
2022/03/15 03:49:50;;;;;;;0.80;0.80;;;8.20;99.90;;;;;;5035155;28;20262;-64
2022/03/15 03:52:16;;;;;;;0.70;0.70;;;8.20;99.90;;;;;;5034061;28;20181;-65
2022/03/15 03:54:43;;;;;;;0.90;0.90;;;8.20;99.90;;;;;;5033894;28;20221;-64
2022/03/15 03:57:10;;;;;;;0.77;0.77;;;8.20;99.90;;;;;;5034863;28;20630;-66
2022/03/15 03:59:37;;;;;;;0.70;0.70;;;8.30;99.90;;;;;;5033159;28;20266;-65
2022/03/15 04:02:04;;;;;;;1.10;1.00;;;8.20;99.90;;;;;;5033220;28;20299;-66
2022/03/15 04:04:33;;;;;;;0.80;0.80;;;8.10;99.90;;;;;;5033842;28;20268;-65
2022/03/15 04:07:00;;;;;;;0.93;0.93;;;8.10;99.90;;;;;;5034373;28;20224;-64
2022/03/15 04:09:27;;;;;;;0.80;0.80;;;8.10;99.90;;;;;;5034515;28;20209;-65
2022/03/15 04:11:54;;;;;;;0.98;0.98;;;8.20;99.90;;;;;;5033875;28;20295;-65
2022/03/15 04:14:20;;;;;;;0.80;0.80;;;8.20;99.90;;;;;;5033929;28;20252;-66
2022/03/15 04:16:47;;;;;;;1.02;0.80;;;8.30;99.90;;;;;;5035083;28;20311;-65
2022/03/15 04:19:14;;;;;;;0.85;0.85;;;8.30;99.90;;;;;;5046302;28;20235;-65
2022/03/15 04:21:42;;;;;;;0.70;0.70;;;8.30;99.90;;;;;;5041820;28;20208;-65
2022/03/15 04:24:09;;;;;;;0.88;0.80;;;8.30;99.90;;;;;;5033759;28;20315;-66
2022/03/15 04:26:36;;;;;;;0.90;0.90;;;8.40;99.90;;;;;;5034044;28;20212;-64
2022/03/15 04:29:04;;;;;;;0.80;0.80;;;8.50;99.90;;;;;;5034105;28;20620;-65
2022/03/15 04:31:30;;;;;;;0.80;0.80;;;8.50;99.90;;;;;;5032403;28;20219;-65
2022/03/15 04:33:57;;;;;;;0.88;0.88;;;8.60;99.90;;;;;;5031239;28;20260;-64
2022/03/15 04:36:24;;;;;;;0.90;0.90;;;8.70;99.90;;;;;;5033103;28;20216;-65
2022/03/15 04:38:53;;;;;;;1.10;1.00;;;8.70;99.90;;;;;;5039076;28;20200;-65
2022/03/15 04:41:20;;;;;;;0.77;0.77;;;8.80;99.90;;;;;;5033131;28;20232;-64
2022/03/15 04:43:47;;;;;;;0.90;0.90;;;8.90;99.90;;;;;;5034262;28;20488;-65
2022/03/15 04:46:14;;;;;;;1.33;0.90;;;8.90;99.90;;;;;;5034286;28;20205;-67
2022/03/15 04:48:42;;;;;;;0.80;0.80;;;8.90;99.90;;;;;;5038520;28;20227;-66
2022/03/15 04:51:09;;;;;;;1.00;1.00;;;9.00;99.90;;;;;;5033190;28;20618;-65
2022/03/15 04:53:36;;;;;;;0.80;0.80;;;9.10;99.90;;;;;;5032772;28;20308;-65
2022/03/15 04:56:05;;;;;;;0.70;0.70;;;9.10;99.90;;;;;;5033382;28;20681;-67
2022/03/15 04:58:32;;;;;;;1.00;1.00;;;9.10;99.90;;;;;;5033104;28;20193;-65
2022/03/15 05:00:59;;;;;;;1.00;1.00;;;9.10;99.90;;;;;;5032331;28;20205;-66
2022/03/15 05:03:26;;;;;;;0.63;0.63;;;9.20;99.90;;;;;;5032171;28;20227;-66
2022/03/15 05:05:53;;;;;;;0.80;0.80;;;9.20;99.90;;;;;;5032799;28;20188;-66
2022/03/15 05:08:19;;;;;;;0.70;0.70;;;9.20;99.90;;;;;;5033169;28;20316;-66
2022/03/15 05:13:32;;;;;;;0.93;0.93;;;9.20;99.90;;;;;;5032016;28;20596;-66
2022/03/15 05:15:59;;;;;;;1.00;1.00;;;9.20;99.90;;;;;;5033254;28;20205;-66
2022/03/15 05:18:26;;;;;;;0.80;0.80;;;9.20;99.90;;;;;;5032947;28;20287;-64
2022/03/15 05:20:53;;;;;;;1.07;1.07;;;9.10;99.90;;;;;;5032766;28;20204;-63
2022/03/15 05:23:20;;;;;;;1.02;1.02;;;9.10;99.90;;;;;;5032240;28;20782;-65
2022/03/15 05:25:47;;;;;;;1.35;1.05;;;9.10;99.90;;;;;;5031800;28;20655;-65
2022/03/15 05:28:15;;;;;;;0.80;0.80;;;9.00;99.90;;;;;;5033536;28;20303;-66
2022/03/15 05:30:43;;;;;;;0.80;0.80;;;8.90;99.90;;;;;;5034548;28;20201;-65
2022/03/15 05:33:10;;;;;;;1.10;1.00;;;9.00;99.90;;;;;;5033214;28;20279;-66
2022/03/15 05:35:37;;;;;;;1.13;1.00;;;9.00;99.90;;;;;;5036448;28;20197;-65
2022/03/15 05:38:04;;;;;;;1.00;1.00;;;9.00;99.90;;;;;;5023561;28;20209;-65
2022/03/15 05:40:31;;;;;;;1.20;1.20;;;8.90;99.90;;;;;;5031836;28;20201;-65
2022/03/15 05:42:58;;;;;;;1.13;1.13;;;8.80;99.90;;;;;;5022962;28;20659;-64
2022/03/15 05:45:25;;;;;;;1.10;1.10;;;8.80;99.90;;;;;;5028496;28;20287;-65
2022/03/15 05:47:54;;;;;;;1.10;1.10;;;8.80;99.90;;;;;;5024142;28;20252;-65
2022/03/15 05:50:21;;;;;;;1.25;1.25;;;8.80;99.90;;;;;;5030301;28;20651;-64
2022/03/15 05:52:48;;;;;;;1.20;1.20;;;8.80;99.90;;;;;;5030478;28;20299;-65
2022/03/15 05:55:15;;;;;;;1.10;1.10;;;8.80;99.90;;;;;;5031584;28;20296;-65
2022/03/15 05:57:42;;;;;;;1.30;1.20;;;8.80;99.90;;;;;;5031292;28;20723;-66
2022/03/15 06:00:10;;;;;;;1.10;1.10;;;8.90;99.90;;;;;;5029617;28;20267;-66
2022/03/15 06:02:37;;;;;;;1.10;1.10;;;8.90;99.90;;;;;;5030671;28;20247;-66
2022/03/15 06:05:07;;;;;;;1.20;1.20;;;9.00;99.90;;;;;;5031620;28;20227;-65
2022/03/15 06:07:34;;;;;;;1.20;1.20;;;8.90;99.90;;;;;;5032312;28;20332;-66
2022/03/15 06:10:01;;;;;;;1.50;1.40;;;8.90;99.90;;;;;;5032057;28;20270;-66
2022/03/15 06:12:27;;;;;;;1.23;1.13;;;8.90;99.90;;;;;;5043554;28;20205;-68
2022/03/15 06:14:54;;;;;;;1.23;1.20;;;9.00;99.90;;;;;;5042809;28;20223;-67
2022/03/15 06:17:21;;;;;;;1.00;1.00;;;9.00;99.90;;;;;;5024565;28;20246;-67
2022/03/15 06:19:48;;;;;;;1.00;1.00;;;9.10;99.90;;;;;;5020799;28;20243;-65
2022/03/15 06:22:16;;;;;;;1.05;1.05;;;9.10;99.90;;;;;;5028574;28;20621;-66
2022/03/15 06:24:43;;;;;;;0.70;0.70;;;9.20;99.90;;;;;;5023035;28;20229;-67
2022/03/15 06:27:11;;;;;;;1.00;1.00;;;9.20;99.90;;;;;;5021116;28;20285;-66
2022/03/15 06:29:38;;;;;;;1.08;1.05;;;9.30;99.90;;;;;;5017171;28;20323;-65
2022/03/15 06:32:05;;;;;;;0.93;0.93;;;9.30;99.90;;;;;;5029094;28;20216;-66
2022/03/15 06:34:32;;;;;;;1.00;1.00;;;9.30;99.90;;;;;;5017308;28;20263;-65
2022/03/15 06:36:59;;;;;;;0.80;0.80;;;9.30;99.90;;;;;;5032342;28;20287;-66
2022/03/15 06:39:27;;;;;;;1.42;0.98;;;9.20;99.90;;;;;;5032309;28;20383;-66
2022/03/15 06:41:54;;;;;;;0.80;0.80;;;9.20;99.90;;;;;;5033763;28;20230;-67
2022/03/15 06:44:21;;;;;;;0.80;0.80;;;9.30;99.90;;;;;;5035165;28;20252;-65
2022/03/15 06:46:48;;;;;;;0.90;0.90;;;9.30;99.90;;;;;;5057214;28;20271;-65
2022/03/15 06:49:15;;;;;;;1.00;1.00;;;9.30;99.90;;;;;;5041739;28;20282;-65
2022/03/15 06:51:42;;;;;;;0.80;0.80;;;9.30;99.90;;;;;;5025152;28;20686;-69
2022/03/15 06:54:08;;;;;;;0.82;0.82;;;9.30;99.90;;;;;;5046197;28;20274;-67
2022/03/15 06:56:40;;;;;;;1.02;1.02;;;9.30;99.90;;;;;;5050083;28;20211;-67
2022/03/15 06:59:07;;;;;;;0.90;0.90;;;9.30;99.90;;;;;;5034231;28;20200;-65
2022/03/15 07:01:34;;;;;;;0.60;0.60;;;9.20;99.90;;;;;;5030199;28;20211;-67
2022/03/15 07:04:01;;;;;;;1.00;1.00;;;9.20;99.90;;;;;;5030754;28;20232;-64
2022/03/15 07:06:28;;;;;;;0.95;0.90;;;9.20;99.90;;;;;;5032442;28;20205;-66
2022/03/15 07:08:55;;;;;;;0.85;0.85;;;9.20;99.90;;;;;;5039290;28;20259;-66
2022/03/15 07:11:22;;;;;;;1.05;1.05;;;9.10;99.90;;;;;;5041454;28;20205;-64
2022/03/15 07:13:50;;;;;;;1.00;1.00;;;9.10;99.90;;;;;;5040774;28;20657;-66
2022/03/15 07:16:17;;;;;;;1.00;1.00;;;9.10;99.90;;;;;;5033058;28;20240;-65
2022/03/15 07:18:44;;;;;;;0.80;0.80;;;9.20;99.90;;;;;;5032914;28;20262;-66
2022/03/15 07:21:11;;;;;;;0.82;0.82;;;9.20;99.90;;;;;;5032592;28;20236;-66
2022/03/15 07:23:38;;;;;;;0.80;0.80;;;9.20;99.90;;;;;;5031883;28;20691;-67
2022/03/15 07:26:05;;;;;;;0.95;0.95;;;9.20;99.90;;;;;;5032711;28;20208;-68
2022/03/15 07:28:32;;;;;;;0.80;0.80;;;9.30;99.90;;;;;;5032636;28;20243;-65
2022/03/15 07:31:00;;;;;;;0.60;0.60;;;9.30;99.90;;;;;;5031879;28;20224;-65
2022/03/15 07:33:27;;;;;;;0.80;0.80;;;9.30;99.90;;;;;;5031130;28;20250;-66
2022/03/15 07:35:54;;;;;;;0.90;0.90;;;9.40;99.90;;;;;;5037997;28;20229;-67
2022/03/15 07:38:21;;;;;;;1.10;1.00;;;9.40;99.90;;;;;;5032362;28;20201;-65
2022/03/15 07:40:49;;;;;;;0.80;0.80;;;9.40;99.90;;;;;;5034724;28;20217;-67
2022/03/15 07:43:16;;;;;;;0.90;0.90;;;9.40;99.90;;;;;;5044028;28;20258;-65
2022/03/15 07:45:43;;;;;;;0.90;0.90;;;9.40;99.90;;;;;;5051812;28;20242;-67
2022/03/15 07:48:12;;;;;;;0.80;0.80;;;9.50;99.90;;;;;;5056610;28;20240;-66
2022/03/15 07:50:39;;;;;;;1.00;1.00;;;9.40;99.90;;;;;;5056283;28;20215;-66
2022/03/15 07:53:06;;;;;;;1.10;1.00;;;9.50;99.90;;;;;;5054888;28;20302;-66
2022/03/15 07:55:34;;;;;;;0.80;0.80;;;9.50;99.90;;;;;;5047016;28;20216;-65
2022/03/15 07:58:01;;;;;;;0.90;0.90;;;9.60;99.90;;;;;;5032531;22;20228;-67
2022/03/15 08:00:28;;;;;;;0.80;0.80;;;9.60;99.90;;;;;;5018181;28;20213;-66
2022/03/15 08:02:55;;;;;;;0.90;0.90;;;9.60;99.90;;;;;;5021289;28;20225;-67
2022/03/15 08:05:24;;;;;;;1.10;1.00;;;9.70;99.90;;;;;;5020590;28;20361;-66
2022/03/15 08:07:51;;;;;;;0.90;0.90;;;9.70;99.90;;;;;;5015493;28;20260;-68
2022/03/15 08:10:18;;;;;;;1.02;1.02;;;9.70;99.90;;;;;;5016362;28;20259;-68
2022/03/15 08:12:45;;;;;;;1.00;1.00;;;9.80;99.90;;;;;;5015625;28;20296;-67
2022/03/15 08:15:12;;;;;;;1.00;1.00;;;9.90;99.90;;;;;;5007197;28;20241;-68
2022/03/15 08:17:39;;;;;;;0.70;0.70;;;9.90;99.90;;;;;;5014936;28;20723;-67
2022/03/15 08:20:08;;;;;;;0.93;0.93;;;10.00;99.90;;;;;;5012131;28;20206;-67
2022/03/15 08:22:36;;;;;;;1.10;1.00;;;10.10;99.90;;;;;;5014448;28;20209;-67
2022/03/15 08:25:04;;;;;;;0.93;0.93;;;10.10;99.90;;;;;;5010837;28;20683;-64
2022/03/15 08:27:31;;;;;;;1.10;1.10;;;10.20;99.90;;;;;;4992418;28;20225;-67
2022/03/15 08:29:58;;;;;;;1.00;1.00;;;10.10;99.90;;;;;;4992386;28;20233;-68
2022/03/15 08:32:25;;;;;;;1.10;1.10;;;10.20;99.90;;;;;;4992374;28;20826;-66
2022/03/15 08:34:52;;;;;;;0.95;0.95;;;10.30;99.90;;;;;;4992582;28;20269;-67
2022/03/15 08:37:19;;;;;;;1.05;1.05;;;10.30;99.90;;;;;;4992961;28;20322;-67
2022/03/15 08:39:48;;;;;;;1.00;1.00;;;10.40;99.90;;;;;;4992801;28;20198;-68
2022/03/15 08:42:14;;;;;;;0.80;0.80;;;10.40;99.90;;;;;;4993192;28;20904;-68
2022/03/15 08:44:42;;;;;;;0.90;0.90;;;10.50;99.90;;;;;;4995129;28;20213;-68
2022/03/15 08:47:09;;;;;;;1.00;1.00;;;10.60;99.90;;;;;;4996656;28;20240;-68
2022/03/15 08:49:36;;;;;;;0.90;0.90;;;10.70;99.90;;;;;;4999144;28;20292;-66
2022/03/15 08:52:03;;;;;;;0.98;0.98;;;10.80;99.90;;;;;;4997461;28;20295;-69
2022/03/15 08:54:30;;;;;;;1.10;1.10;;;10.90;99.90;;;;;;4996229;28;20301;-66
2022/03/15 08:56:59;;;;;;;1.00;0.93;;;11.00;99.90;;;;;;4999396;28;20234;-67
2022/03/15 08:59:26;;;;;;;1.10;1.10;;;11.10;99.90;;;;;;4995167;28;20206;-66
2022/03/15 09:01:53;;;;;;;1.03;1.00;;;11.20;99.90;;;;;;4995179;28;20555;-68
2022/03/15 09:04:20;;;;;;;1.27;1.23;;;11.20;99.90;;;;;;4996530;28;20296;-66
2022/03/15 09:06:47;;;;;;;1.40;1.30;;;11.10;99.90;;;;;;4995621;28;20665;-67
2022/03/15 09:09:18;;;;;;;1.52;1.42;;;11.00;99.90;;;;;;5008003;28;20238;-68
2022/03/15 09:11:45;;;;;;;1.60;1.50;;;10.80;99.90;;;;;;5008894;28;20237;-67
2022/03/15 09:14:14;;;;;;;1.80;1.70;;;10.80;99.90;;;;;;5003111;28;20229;-66
2022/03/15 09:16:41;;;;;;;1.60;1.50;;;10.80;99.90;;;;;;5003364;28;20233;-66
2022/03/15 09:19:08;;;;;;;1.70;1.60;;;10.60;99.90;;;;;;4994841;28;20241;-65
2022/03/15 09:21:35;;;;;;;1.65;1.55;;;10.40;99.90;;;;;;4994067;28;20309;-67
2022/03/15 09:24:02;;;;;;;1.77;1.58;;;10.30;99.90;;;;;;4993826;28;20657;-66
2022/03/15 09:26:29;;;;;;;1.60;1.50;;;10.30;99.90;;;;;;4997590;28;20225;-68
2022/03/15 09:28:56;;;;;;;1.37;1.27;;;10.20;99.90;;;;;;5013326;28;20225;-68
2022/03/15 09:31:25;;;;;;;1.60;1.50;;;10.10;99.90;;;;;;5011539;28;20205;-66
2022/03/15 09:33:52;;;;;;;1.70;1.60;;;10.10;99.90;;;;;;5009459;28;20288;-67
2022/03/15 09:36:19;;;;;;;1.58;1.50;;;10.10;99.90;;;;;;5008906;28;20212;-66
2022/03/15 09:38:46;;;;;;;1.35;1.35;;;10.10;99.90;;;;;;5011642;28;20296;-67
2022/03/15 09:41:16;;;;;;;1.45;1.38;;;10.10;99.90;;;;;;5011881;28;20299;-66
2022/03/15 09:43:45;;;;;;;1.50;1.40;;;10.10;99.90;;;;;;5013491;28;20579;-68
2022/03/15 09:46:13;;;;;;;1.40;1.30;;;10.20;99.90;;;;;;5013395;28;20201;-67
2022/03/15 09:48:42;;;;;;;1.42;1.33;;;10.20;99.90;;;;;;5013514;28;20221;-66
2022/03/15 09:51:14;;;;;;;1.50;1.40;;;10.20;99.90;;;;;;5012967;28;20296;-66
2022/03/15 09:53:43;;;;;;;1.42;1.20;;;10.10;99.90;;;;;;5013205;28;20189;-66
2022/03/15 09:56:11;;;;;;;1.50;1.40;;;10.20;99.90;;;;;;5013515;28;20212;-67
2022/03/15 09:58:38;;;;;;;1.47;1.40;;;10.20;99.90;;;;;;5013983;28;20209;-67
2022/03/15 10:01:05;;;;;;;1.60;1.50;;;10.30;99.90;;;;;;5012861;28;20245;-68
2022/03/15 10:03:32;;;;;;;1.33;1.27;;;10.20;99.90;;;;;;5013029;28;20300;-66
2022/03/15 10:06:00;;;;;;;1.75;1.65;;;10.20;99.90;;;;;;5013132;28;20288;-67
2022/03/15 10:08:28;;;;;;;1.58;1.48;;;10.30;99.90;;;;;;5023012;28;20781;-66
2022/03/15 10:10:55;;;;;;;1.42;1.38;;;10.40;99.90;;;;;;5018284;28;20667;-65
2022/03/15 10:13:22;;;;;;;1.40;1.40;;;10.20;99.90;;;;;;5012597;28;20209;-68
2022/03/15 10:15:53;;;;;;;1.40;1.30;;;10.30;99.90;;;;;;5012752;28;20517;-66
2022/03/15 10:18:21;;;;;;;1.45;1.35;;;10.40;99.90;;;;;;5012869;28;20364;-67
2022/03/15 10:20:49;;;;;;;1.40;1.30;;;10.30;99.90;;;;;;5012938;28;20755;-67
2022/03/15 10:23:19;;;;;;;1.40;1.30;;;10.40;99.90;;;;;;5012483;28;20679;-67
2022/03/15 10:25:48;;;;;;;2.13;1.30;;;10.40;99.90;;;;;;5012856;28;20205;-66
2022/03/15 10:28:16;;;;;;;1.40;1.30;;;10.40;99.90;;;;;;5012652;28;20355;-66
2022/03/15 10:30:45;;;;;;;1.33;1.23;;;10.40;99.90;;;;;;5012700;28;20228;-66
2022/03/15 10:33:12;;;;;;;1.42;1.33;;;10.40;99.90;;;;;;5012953;28;20279;-66
2022/03/15 10:35:42;;;;;;;1.30;1.30;;;10.40;99.90;;;;;;5013864;28;20292;-67
2022/03/15 10:38:10;;;;;;;1.52;1.42;;;10.40;99.90;;;;;;5011791;28;20225;-67
2022/03/15 10:40:41;;;;;;;1.70;1.60;;;10.40;99.90;;;;;;5012261;28;20309;-67
2022/03/15 10:43:11;;;;;;;1.30;1.30;;;10.40;99.90;;;;;;5012040;28;20280;-67
2022/03/15 10:45:41;;;;;;;1.60;1.50;;;10.40;99.90;;;;;;5012563;28;20211;-68
2022/03/15 10:48:17;;;;;;;1.60;1.50;;;10.60;99.90;;;;;;5011629;28;20312;-66
2022/03/15 10:50:52;;;;;;;1.60;1.50;;;10.50;99.90;;;;;;5013416;28;20225;-67
2022/03/15 10:53:20;;;;;;;1.50;1.40;;;10.50;99.90;;;;;;5014643;28;20648;-67
2022/03/15 10:55:48;;;;;;;1.50;1.40;;;10.50;99.90;;;;;;5023749;28;20216;-68
2022/03/15 10:58:22;;;;;;;1.60;1.50;;;10.70;99.90;;;;;;5016454;28;20323;-67
2022/03/15 11:00:54;;;;;;;1.40;1.40;;;10.60;99.90;;;;;;5017926;28;20190;-66
2022/03/15 11:03:29;;;;;;;1.52;1.42;;;10.70;99.90;;;;;;5028192;28;20200;-66
2022/03/15 11:05:58;;;;;;;1.50;1.40;;;11.00;99.90;;;;;;5027684;28;20217;-68
2022/03/15 11:08:24;;;;;;;1.50;1.45;;;10.90;99.90;;;;;;5028555;28;20226;-68
2022/03/15 11:10:54;;;;;;;1.50;1.40;;;10.90;99.90;;;;;;5022946;28;20658;-67
2022/03/15 11:13:28;;;;;;;1.40;1.30;;;10.90;99.90;;;;;;5017822;28;20692;-69
2022/03/15 11:15:57;;;;;;;1.50;1.40;;;10.90;99.90;;;;;;5016777;28;20209;-65
2022/03/15 11:18:28;;;;;;;1.17;1.17;;;10.90;99.90;;;;;;5015563;28;20225;-67
2022/03/15 11:20:58;;;;;;;1.10;1.10;;;10.90;99.90;;;;;;5015325;28;20189;-67
2022/03/15 11:23:25;;;;;;;1.20;1.20;;;11.00;99.90;;;;;;5015582;28;20609;-67
2022/03/15 11:25:59;;;;;;;1.08;1.08;;;11.10;99.90;;;;;;5015437;28;20205;-67
2022/03/15 11:28:27;;;;;;;1.00;1.00;;;11.10;99.90;;;;;;5017762;28;20615;-68
2022/03/15 11:30:56;;;;;;;0.97;0.97;;;11.20;99.90;;;;;;5017146;28;20283;-67
2022/03/15 11:33:24;;;;;;;1.00;1.00;;;11.30;99.90;;;;;;5018677;28;20308;-66
2022/03/15 11:35:51;;;;;;;1.10;1.10;;;11.20;99.90;;;;;;5015475;28;20291;-68
2022/03/15 11:38:18;;;;;;;1.20;1.10;;;11.30;99.90;;;;;;5016211;28;20563;-66
2022/03/15 11:40:47;;;;;;;1.30;1.30;;;11.40;99.90;;;;;;5015317;28;20215;-68
2022/03/15 11:43:26;;;;;;;1.00;1.00;;;11.40;99.90;;;;;;5015426;28;20237;-66
2022/03/15 11:45:59;;;;;;;1.40;1.30;;;11.40;99.90;;;;;;5015596;28;20211;-68
2022/03/15 11:48:37;;;;;;;1.08;1.08;;;11.40;99.90;;;;;;5015102;28;20240;-67
2022/03/15 11:51:13;;;;;;;1.40;1.30;;;11.50;99.90;;;;;;5014828;28;20356;-68
2022/03/15 11:53:48;;;;;;;1.42;1.38;;;11.50;99.90;;;;;;5015245;28;20613;-66
2022/03/15 11:56:28;;;;;;;1.40;1.30;;;11.50;99.90;;;;;;5017775;28;20236;-68
2022/03/15 11:58:59;;;;;;;1.38;1.38;;;11.40;99.90;;;;;;5024145;28;20190;-68
2022/03/15 12:01:28;;;;;;;1.63;1.52;;;11.30;99.90;;;;;;5017296;28;20196;-67
2022/03/15 12:03:57;;;;;;;1.50;1.40;;;11.10;99.90;;;;;;5015323;28;20215;-67
2022/03/15 12:06:26;;;;;;;1.73;1.63;;;11.00;99.90;;;;;;5014830;28;20263;-66
2022/03/15 12:08:55;;;;;;;1.50;1.42;;;10.90;99.90;;;;;;5015934;28;20295;-66
2022/03/15 12:11:34;;;;;;;1.45;1.35;;;10.80;99.90;;;;;;5014797;28;20233;-65
2022/03/15 12:14:08;;;;;;;1.48;1.38;;;10.60;99.90;;;;;;5017940;28;20201;-69
2022/03/15 12:16:42;;;;;;;1.50;1.40;;;10.30;99.90;;;;;;5018229;28;20245;-67
2022/03/15 12:19:23;;;;;;;1.67;1.57;;;10.40;99.90;;;;;;5014751;28;20194;-65
2022/03/15 12:21:54;;;;;;;1.67;1.58;;;10.30;99.90;;;;;;5014831;28;20197;-67
2022/03/15 12:24:31;;;;;;;1.63;1.52;;;10.30;99.90;;;;;;5014816;28;20205;-66
2022/03/15 12:27:00;;;;;;;1.33;1.33;;;10.30;99.90;;;;;;5014520;28;20719;-68
2022/03/15 12:29:29;;;;;;;1.73;1.63;;;10.20;99.90;;;;;;5014727;28;20229;-67
2022/03/15 12:31:57;;;;;;;1.33;1.33;;;10.30;99.90;;;;;;5015100;28;20215;-67
2022/03/15 12:34:26;;;;;;;3.22;1.48;;;10.50;99.90;;;;;;5015336;28;20208;-67
2022/03/15 12:36:55;;;;;;;1.85;1.75;;;10.30;99.90;;;;;;5015020;28;20231;-68
2022/03/15 12:39:24;;;;;;;1.80;1.70;;;10.20;99.90;;;;;;5014632;28;20232;-66
2022/03/15 12:42:04;;;;;;;1.50;1.40;;;10.50;99.90;;;;;;5015265;28;20512;-67
2022/03/15 12:44:42;;;;;;;1.67;1.57;;;10.40;99.90;;;;;;5013872;28;20204;-67
2022/03/15 12:47:10;;;;;;;1.30;1.30;;;10.40;99.90;;;;;;5013866;28;20315;-68
2022/03/15 12:49:37;;;;;;;1.30;1.30;;;10.50;99.90;;;;;;5013605;28;20225;-67
2022/03/15 12:52:11;;;;;;;1.57;1.47;;;10.60;99.90;;;;;;5013459;28;20209;-67
2022/03/15 12:54:38;;;;;;;1.30;1.30;;;10.70;99.90;;;;;;5013556;28;20208;-67
2022/03/15 12:57:10;;;;;;;1.33;1.33;;;10.80;99.90;;;;;;5011293;28;20269;-67
2022/03/15 12:59:38;;;;;;;1.55;1.45;;;10.90;99.90;;;;;;5013859;28;20695;-68